Time;durP1;ratioP1;P1;durP2;ratioP2;P2;SDS_P1;SDS_P2;PMS_P1;PMS_P2;Temp;Humidity;BMP_temperature;BMP_pressure;BME280_temperature;BME280_humidity;BME280_pressure;Samples;Min_cycle;Max_cycle;Signal;HPM_P1;HPM_P2
2022/03/15 00:00:01;;;;;;;35.13;22.80;;;8.30;99.90;;;7.10;84.32;102253.63;4942894;28;20508;-73
2022/03/15 00:02:28;;;;;;;34.83;23.05;;;8.40;99.90;;;7.11;84.65;102254.53;4952392;28;20065;-74
2022/03/15 00:04:55;;;;;;;35.95;22.48;;;8.30;99.90;;;7.11;84.71;102250.13;4943710;28;20035;-74
2022/03/15 00:07:21;;;;;;;34.63;23.00;;;8.30;99.90;;;7.10;84.79;102252.75;4966968;28;20504;-74
2022/03/15 00:09:48;;;;;;;39.22;23.70;;;8.30;99.90;;;7.10;85.07;102256.25;4952566;28;20383;-73
2022/03/15 00:12:14;;;;;;;35.95;22.85;;;8.40;99.90;;;7.09;86.04;102253.66;4957377;28;20035;-74
2022/03/15 00:14:42;;;;;;;36.30;23.52;;;8.30;99.90;;;7.05;86.09;102252.81;4953655;28;20109;-73
2022/03/15 00:17:09;;;;;;;36.55;23.90;;;8.30;99.90;;;7.05;86.43;102255.41;4952153;28;20680;-73
2022/03/15 00:19:35;;;;;;;39.00;24.15;;;8.30;99.90;;;7.05;86.84;102250.19;4950865;28;20035;-73
2022/03/15 00:22:04;;;;;;;41.28;25.27;;;8.30;99.90;;;7.03;87.24;102256.31;4954039;28;20042;-73
2022/03/15 00:24:30;;;;;;;40.13;25.65;;;8.30;99.90;;;7.03;87.54;102256.31;4952517;28;20023;-73
2022/03/15 00:26:58;;;;;;;38.92;25.27;;;8.30;99.90;;;7.03;88.20;102256.31;4944820;28;20680;-73
2022/03/15 00:29:24;;;;;;;41.78;25.90;;;8.30;99.90;;;6.99;88.71;102258.94;4936679;28;20110;-73
2022/03/15 00:31:50;;;;;;;42.85;25.42;;;8.30;99.90;;;7.05;89.36;102260.66;4951708;28;20027;-73
2022/03/15 00:34:16;;;;;;;41.60;26.27;;;8.30;99.90;;;7.10;89.31;102261.47;4951066;28;20043;-74
2022/03/15 00:36:42;;;;;;;40.05;25.52;;;8.30;99.90;;;7.13;89.24;102252.75;4952876;28;20507;-73
2022/03/15 00:39:08;;;;;;;39.83;26.73;;;8.40;99.90;;;7.15;89.66;102262.34;4951242;28;20174;-73
2022/03/15 00:41:35;;;;;;;40.60;27.00;;;8.40;99.90;;;7.17;89.44;102257.97;4942786;28;20042;-74
2022/03/15 00:44:01;;;;;;;40.83;27.45;;;8.60;99.90;;;7.19;89.59;102261.44;4940763;28;20514;-73
2022/03/15 00:46:27;;;;;;;42.45;27.92;;;8.40;99.90;;;7.20;90.23;102254.44;4950180;28;20043;-72
2022/03/15 00:48:53;;;;;;;41.75;27.40;;;8.50;99.90;;;7.23;90.49;102250.91;4941665;28;20044;-72
2022/03/15 00:51:19;;;;;;;46.08;28.60;;;8.50;99.90;;;7.21;90.90;102253.53;4950656;28;20042;-72
2022/03/15 00:53:46;;;;;;;45.25;28.60;;;8.50;99.90;;;7.21;90.92;102257.91;4950804;28;20045;-72
2022/03/15 00:56:12;;;;;;;44.42;28.25;;;8.50;99.90;;;7.21;91.06;102263.16;4954767;28;20266;-72
2022/03/15 00:58:38;;;;;;;42.67;27.70;;;8.50;99.90;;;7.21;91.72;102271.00;4964761;28;20691;-73
2022/03/15 01:01:04;;;;;;;43.33;28.52;;;8.40;99.90;;;7.16;91.75;102264.06;4967219;28;20146;-73
2022/03/15 01:03:30;;;;;;;44.38;29.90;;;8.50;99.90;;;7.16;92.24;102257.97;4952105;28;20034;-72
2022/03/15 01:05:58;;;;;;;48.25;29.40;;;8.40;99.90;;;7.15;92.60;102258.84;4934766;28;20063;-73
2022/03/15 01:08:24;;;;;;;47.47;29.27;;;8.40;99.90;;;7.16;92.79;102263.19;4948475;28;20038;-72
2022/03/15 01:10:51;;;;;;;48.67;30.17;;;8.40;99.90;;;7.14;92.59;102259.72;4952402;28;20110;-72
2022/03/15 01:13:17;;;;;;;49.17;30.52;;;8.40;99.90;;;7.11;93.20;102255.38;4966718;28;20050;-73
2022/03/15 01:15:44;;;;;;;48.17;31.08;;;8.40;99.90;;;7.11;93.36;102255.38;4951155;28;20041;-72
2022/03/15 01:18:14;;;;;;;48.67;30.75;;;8.40;99.90;;;7.11;93.20;102252.75;4958085;28;20045;-72
2022/03/15 01:20:44;;;;;;;50.30;32.22;;;8.30;99.90;;;7.11;93.63;102260.63;4951233;28;20033;-73
2022/03/15 01:23:10;;;;;;;50.85;32.75;;;8.30;99.90;;;7.09;93.56;102261.53;4934435;28;20037;-73
2022/03/15 01:25:37;;;;;;;52.85;33.25;;;8.40;99.90;;;7.11;93.75;102263.25;4949128;28;20027;-74
2022/03/15 01:28:05;;;;;;;50.92;31.80;;;8.30;99.90;;;7.14;93.34;102255.34;4977855;28;20043;-72
2022/03/15 01:30:32;;;;;;;49.65;31.60;;;8.30;99.90;;;7.15;93.21;102251.84;4951201;28;20110;-72
2022/03/15 01:32:58;;;;;;;49.05;31.50;;;8.40;99.90;;;7.18;92.72;102257.06;4933422;28;20086;-73
2022/03/15 01:35:25;;;;;;;47.70;31.55;;;8.40;99.90;;;7.19;92.28;102256.19;4951765;28;20038;-73
2022/03/15 01:37:51;;;;;;;51.47;32.90;;;8.40;99.90;;;7.22;92.19;102259.69;4949074;28;20105;-73
2022/03/15 01:40:17;;;;;;;51.47;31.63;;;8.40;99.90;;;7.19;92.21;102264.06;4950090;28;20031;-72
2022/03/15 01:42:43;;;;;;;50.63;32.53;;;8.40;99.90;;;7.18;92.31;102264.06;4942329;28;20065;-73
2022/03/15 01:45:10;;;;;;;53.72;34.35;;;8.40;99.90;;;7.16;92.74;102265.81;4949613;28;20042;-72
2022/03/15 01:47:36;;;;;;;51.22;33.47;;;8.40;99.90;;;7.11;93.42;102268.47;4951727;28;20046;-73
2022/03/15 01:50:03;;;;;;;50.30;32.88;;;8.30;99.90;;;7.08;93.99;102268.47;4953296;28;20030;-73
2022/03/15 01:52:29;;;;;;;52.30;34.15;;;8.30;99.90;;;7.09;94.54;102269.38;4950253;28;20130;-72
2022/03/15 01:54:55;;;;;;;53.75;34.00;;;8.30;99.90;;;7.07;95.13;102268.53;4948845;28;20103;-72
2022/03/15 01:57:23;;;;;;;56.33;33.30;;;8.30;99.90;;;7.04;95.82;102273.75;4950330;28;20134;-73
2022/03/15 01:59:49;;;;;;;53.00;33.92;;;8.30;99.90;;;7.04;95.75;102277.28;4952492;28;20050;-73
2022/03/15 02:02:15;;;;;;;51.70;33.38;;;8.30;99.90;;;7.03;96.43;102272.91;4950495;28;20106;-73
2022/03/15 02:04:41;;;;;;;53.88;34.95;;;8.30;99.90;;;7.09;96.85;102270.25;4968043;28;20062;-72
2022/03/15 02:07:12;;;;;;;54.28;33.50;;;8.30;99.90;;;7.11;97.21;102263.25;4948252;28;20154;-73
2022/03/15 02:09:40;;;;;;;54.63;33.92;;;8.40;99.90;;;7.15;97.62;102274.56;4932766;28;20034;-72
2022/03/15 02:12:08;;;;;;;53.95;32.72;;;8.40;99.90;;;7.17;97.91;102275.41;4949335;28;20030;-73
2022/03/15 02:14:36;;;;;;;51.60;33.20;;;8.40;99.90;;;7.23;97.68;102269.25;4953037;28;20046;-73
2022/03/15 02:17:03;;;;;;;53.22;33.40;;;8.40;99.90;;;7.24;97.53;102271.00;4949815;28;20023;-72
2022/03/15 02:19:30;;;;;;;55.42;34.00;;;8.50;99.90;;;7.28;96.98;102267.47;4948211;28;20588;-72
2022/03/15 02:21:59;;;;;;;55.38;32.40;;;8.50;99.90;;;7.29;97.06;102264.84;4951132;28;20034;-73
2022/03/15 02:24:26;;;;;;;51.45;32.17;;;8.50;99.90;;;7.29;97.09;102271.84;4948398;28;20110;-73
2022/03/15 02:26:52;;;;;;;56.80;34.67;;;8.50;99.90;;;7.29;97.42;102274.44;4939161;28;20035;-73
2022/03/15 02:29:20;;;;;;;55.22;34.22;;;8.50;99.90;;;7.31;97.79;102270.94;4951345;28;20042;-73
2022/03/15 02:31:46;;;;;;;53.03;33.67;;;8.50;99.90;;;7.32;97.64;102275.31;4932248;28;21455;-73
2022/03/15 02:34:12;;;;;;;51.88;33.40;;;8.60;99.90;;;7.31;97.62;102264.81;4952203;28;20019;-73
2022/03/15 02:36:38;;;;;;;51.08;32.42;;;8.60;99.90;;;7.31;98.02;102270.06;4941489;28;20038;-74
2022/03/15 02:39:04;;;;;;;52.33;32.88;;;8.60;99.90;;;7.30;97.93;102273.56;4950013;28;20329;-72
2022/03/15 02:41:30;;;;;;;53.97;32.92;;;8.60;99.90;;;7.29;98.27;102275.31;4949517;28;20038;-73
2022/03/15 02:43:56;;;;;;;56.20;34.28;;;8.50;99.90;;;7.30;98.41;102279.69;4950581;28;20391;-73
2022/03/15 02:46:32;;;;;;;57.25;34.67;;;8.50;99.90;;;7.32;98.30;102280.53;4949915;28;20144;-73
2022/03/15 02:48:58;;;;;;;54.17;34.75;;;8.50;99.90;;;7.33;98.18;102273.56;4947927;28;20057;-73
2022/03/15 02:51:25;;;;;;;61.58;35.15;;;8.50;99.90;;;7.31;98.83;102281.41;4950313;28;20023;-73
2022/03/15 02:53:54;;;;;;;57.22;34.55;;;8.60;99.90;;;7.34;98.47;102285.75;4924316;28;20078;-73
2022/03/15 02:56:21;;;;;;;56.42;32.85;;;8.60;99.90;;;7.34;98.42;102270.94;4949580;28;20070;-73
2022/03/15 02:58:48;;;;;;;57.10;33.65;;;8.60;99.90;;;7.33;98.56;102276.16;4949840;28;20038;-73
2022/03/15 03:01:15;;;;;;;62.85;34.15;;;8.60;99.90;;;7.34;98.44;102276.16;4949542;28;20031;-72
2022/03/15 03:03:41;;;;;;;58.00;34.70;;;8.60;99.90;;;7.34;98.53;102281.41;4932530;28;20023;-73
2022/03/15 03:06:07;;;;;;;59.65;34.03;;;8.60;99.90;;;7.34;98.87;102283.13;4948760;28;20077;-72
2022/03/15 03:08:35;;;;;;;62.08;35.40;;;8.60;99.90;;;7.32;98.80;102277.03;4949886;28;20050;-73
2022/03/15 03:11:02;;;;;;;58.00;34.20;;;8.60;99.90;;;7.34;99.03;102283.13;4947524;28;20027;-73
2022/03/15 03:13:28;;;;;;;58.28;34.05;;;8.60;99.90;;;7.33;99.43;102282.28;4945701;28;20118;-73
2022/03/15 03:16:00;;;;;;;58.38;33.75;;;8.60;99.90;;;7.36;99.46;102281.38;4962767;28;20035;-72
2022/03/15 03:18:32;;;;;;;59.05;33.78;;;8.60;99.90;;;7.36;99.27;102278.75;4952911;28;20031;-72
2022/03/15 03:21:04;;;;;;;60.83;33.25;;;8.60;99.90;;;7.34;98.99;102276.16;4949079;28;20027;-73
2022/03/15 03:23:32;;;;;;;59.90;34.65;;;8.60;99.90;;;7.35;99.24;102277.88;4946453;28;20030;-72
2022/03/15 03:26:04;;;;;;;60.38;34.65;;;8.60;99.90;;;7.38;99.04;102280.47;4950589;28;20031;-73
2022/03/15 03:28:40;;;;;;;61.92;34.65;;;8.60;99.90;;;7.38;99.17;102279.59;4954406;28;20431;-73
2022/03/15 03:31:09;;;;;;;62.00;34.63;;;8.60;99.90;;;7.35;99.57;102283.13;4948869;28;20038;-72
2022/03/15 03:33:36;;;;;;;60.92;34.55;;;8.60;99.90;;;7.37;99.84;102285.75;4931587;28;20065;-73
2022/03/15 03:36:03;;;;;;;66.07;34.05;;;8.60;99.90;;;7.36;99.57;102279.66;4943120;28;20027;-73
2022/03/15 03:38:32;;;;;;;65.78;35.60;;;8.60;99.90;;;7.35;99.49;102285.75;4948748;28;20030;-73
2022/03/15 03:40:59;;;;;;;63.85;34.38;;;8.60;99.90;;;7.35;100.00;102296.22;4949654;28;20140;-73
2022/03/15 03:43:25;;;;;;;63.65;34.85;;;8.50;99.90;;;7.35;99.56;102287.50;4933123;28;20511;-73
2022/03/15 03:45:51;;;;;;;69.53;36.22;;;8.50;99.90;;;7.32;100.00;102290.13;4949139;28;20031;-73
2022/03/15 03:48:17;;;;;;;64.50;35.75;;;8.60;99.90;;;7.32;100.00;102285.78;4948606;28;20042;-73
2022/03/15 03:50:44;;;;;;;65.47;34.80;;;8.60;99.90;;;7.31;100.00;102291.03;4948196;28;20035;-73
2022/03/15 03:53:11;;;;;;;70.45;35.38;;;8.60;99.90;;;7.28;100.00;102296.28;4941577;28;20079;-73
2022/03/15 03:55:37;;;;;;;68.30;36.47;;;8.50;99.90;;;7.28;100.00;102296.28;4948733;28;20038;-73
2022/03/15 03:58:03;;;;;;;65.93;35.65;;;8.50;99.90;;;7.28;100.00;102294.56;4950087;28;20019;-72
2022/03/15 04:00:29;;;;;;;67.80;36.55;;;8.50;99.90;;;7.29;100.00;102292.78;4964617;28;20127;-73
2022/03/15 04:03:00;;;;;;;70.38;36.25;;;8.50;99.90;;;7.32;100.00;102300.63;4948025;28;20119;-73
2022/03/15 04:05:30;;;;;;;73.47;37.58;;;8.50;99.90;;;7.29;100.00;102304.13;4949364;28;20127;-73
2022/03/15 04:07:59;;;;;;;70.55;35.58;;;8.50;99.90;;;7.29;100.00;102298.03;4940854;28;20051;-72
2022/03/15 04:10:31;;;;;;;72.47;37.22;;;8.50;99.90;;;7.27;100.00;102298.03;4970562;28;20110;-73
2022/03/15 04:12:57;;;;;;;72.57;36.63;;;8.50;99.90;;;7.25;100.00;102298.94;4950025;28;20130;-73
2022/03/15 04:15:24;;;;;;;71.65;36.45;;;8.50;99.90;;;7.28;100.00;102293.66;4951526;28;20703;-73
2022/03/15 04:17:51;;;;;;;71.38;37.70;;;8.50;99.90;;;7.28;100.00;102293.66;4936292;28;20119;-73
2022/03/15 04:20:17;;;;;;;71.60;36.85;;;8.50;99.90;;;7.28;100.00;102289.31;4951790;28;20023;-73
2022/03/15 04:22:44;;;;;;;68.20;36.10;;;8.50;99.90;;;7.27;100.00;102287.56;4950428;28;20436;-73
2022/03/15 04:25:11;;;;;;;68.15;36.22;;;8.50;99.90;;;7.27;100.00;102287.56;4954144;28;20114;-73
2022/03/15 04:27:37;;;;;;;73.43;36.92;;;8.50;99.90;;;7.28;100.00;102284.06;4952030;28;20434;-72
2022/03/15 04:30:05;;;;;;;74.35;37.38;;;8.50;99.90;;;7.29;100.00;102291.03;4952819;28;20041;-73
2022/03/15 04:32:32;;;;;;;70.90;36.90;;;8.50;99.90;;;7.28;100.00;102301.53;4951321;28;20047;-73
2022/03/15 04:34:59;;;;;;;74.97;37.70;;;8.50;99.90;;;7.24;100.00;102292.84;4951343;28;20039;-73
2022/03/15 04:37:25;;;;;;;71.00;35.70;;;8.50;99.90;;;7.24;100.00;102298.06;4935794;28;20118;-73
2022/03/15 04:39:51;;;;;;;73.60;36.50;;;8.50;99.90;;;7.22;100.00;102299.84;4976218;28;20058;-72
2022/03/15 04:42:18;;;;;;;72.57;37.63;;;8.50;99.90;;;7.23;100.00;102306.78;4950235;28;20044;-73
2022/03/15 04:44:44;;;;;;;72.88;37.17;;;8.50;99.90;;;7.25;100.00;102305.03;4952683;28;20023;-73
2022/03/15 04:47:10;;;;;;;69.75;36.25;;;8.50;99.90;;;7.27;100.00;102307.66;4935745;28;20534;-73
2022/03/15 04:49:36;;;;;;;70.47;36.20;;;8.50;99.90;;;7.27;100.00;102308.53;4950800;28;20050;-73
2022/03/15 04:52:03;;;;;;;70.53;35.90;;;8.50;99.90;;;7.27;100.00;102299.78;4954799;28;20023;-73
2022/03/15 04:54:30;;;;;;;71.38;36.13;;;8.50;99.90;;;7.26;100.00;102296.31;4966677;28;20074;-73
2022/03/15 04:56:56;;;;;;;74.53;36.47;;;8.50;99.90;;;7.27;100.00;102302.41;4951136;28;20048;-73
2022/03/15 04:59:22;;;;;;;71.13;35.35;;;8.50;99.90;;;7.27;100.00;102302.41;4953011;28;20027;-73
2022/03/15 05:01:49;;;;;;;72.57;35.55;;;8.50;99.90;;;7.27;100.00;102303.28;4950905;28;20123;-73
2022/03/15 05:04:15;;;;;;;66.82;34.45;;;8.50;99.90;;;7.26;100.00;102305.94;4941161;28;20027;-73
2022/03/15 05:06:41;;;;;;;68.03;34.63;;;8.50;99.90;;;7.22;100.00;102307.69;4935892;28;20081;-74
2022/03/15 05:09:07;;;;;;;69.03;34.67;;;8.50;99.90;;;7.24;100.00;102308.56;4951331;28;20042;-73
2022/03/15 05:11:34;;;;;;;67.68;33.38;;;8.50;99.90;;;7.22;100.00;102306.84;4934936;28;20031;-73
2022/03/15 05:14:00;;;;;;;66.40;32.92;;;8.50;99.90;;;7.21;100.00;102303.31;4952459;28;20409;-73
2022/03/15 05:16:26;;;;;;;62.70;31.88;;;8.50;99.90;;;7.24;100.00;102311.19;4948499;28;20062;-73
2022/03/15 05:18:54;;;;;;;74.10;33.60;;;8.50;99.90;;;7.25;100.00;102309.41;4944224;28;20063;-73
2022/03/15 05:21:24;;;;;;;68.43;33.58;;;8.50;99.90;;;7.27;100.00;102318.13;4952173;28;20107;-72
2022/03/15 05:23:54;;;;;;;66.97;31.60;;;8.50;99.90;;;7.28;100.00;102309.38;4950823;28;20031;-73
2022/03/15 05:26:22;;;;;;;67.00;32.28;;;8.50;99.90;;;7.28;100.00;102307.66;4944266;28;20023;-73
2022/03/15 05:28:50;;;;;;;63.10;31.70;;;8.50;99.90;;;7.26;100.00;102304.19;4957370;28;20050;-73
2022/03/15 05:31:19;;;;;;;68.70;32.00;;;8.50;99.90;;;7.29;100.00;102311.13;4948939;28;20055;-73
2022/03/15 05:33:47;;;;;;;69.65;32.30;;;8.50;99.90;;;7.25;100.00;102306.78;4952913;28;20031;-73
2022/03/15 05:36:14;;;;;;;65.00;31.08;;;8.50;99.90;;;7.29;100.00;102312.00;4935362;28;20428;-73
2022/03/15 05:38:42;;;;;;;61.30;30.25;;;8.50;99.90;;;7.30;100.00;102319.00;4953930;28;20039;-73
2022/03/15 05:41:09;;;;;;;62.67;30.33;;;8.50;99.90;;;7.31;100.00;102323.34;4932261;28;20081;-72
2022/03/15 05:43:37;;;;;;;68.00;30.88;;;8.50;99.90;;;7.34;100.00;102322.44;4957636;28;20023;-73
2022/03/15 05:46:04;;;;;;;61.58;29.27;;;8.50;99.90;;;7.35;100.00;102327.69;4953657;28;20062;-73
2022/03/15 05:48:32;;;;;;;65.60;30.05;;;8.50;99.90;;;7.35;100.00;102324.19;4941603;28;20049;-73
2022/03/15 05:50:58;;;;;;;58.22;29.13;;;8.50;99.90;;;7.38;100.00;102327.63;4949799;28;20483;-73
2022/03/15 05:53:25;;;;;;;64.68;30.30;;;8.60;99.90;;;7.39;100.00;102323.28;4948736;28;20066;-72
2022/03/15 05:55:51;;;;;;;60.08;29.20;;;8.50;99.90;;;7.40;100.00;102328.50;4933400;28;20043;-73
2022/03/15 05:58:17;;;;;;;58.58;29.33;;;8.60;99.90;;;7.40;100.00;102336.38;4952717;28;20054;-73
2022/03/15 06:00:43;;;;;;;60.88;29.40;;;8.60;99.90;;;7.42;100.00;102344.22;4951640;28;20042;-73
2022/03/15 06:03:11;;;;;;;62.88;29.50;;;8.60;99.90;;;7.41;100.00;102342.50;4971574;28;20113;-73
2022/03/15 06:05:39;;;;;;;60.22;28.83;;;8.60;99.90;;;7.37;100.00;102336.41;4950490;28;20023;-73
2022/03/15 06:08:06;;;;;;;61.88;30.17;;;8.60;99.90;;;7.39;100.00;102339.88;4958190;28;20039;-73
2022/03/15 06:10:32;;;;;;;63.03;30.80;;;8.60;99.90;;;7.39;100.00;102333.78;4950409;28;20035;-73
2022/03/15 06:12:58;;;;;;;64.05;30.40;;;8.60;99.90;;;7.37;100.00;102325.91;4949105;28;20089;-73
2022/03/15 06:15:24;;;;;;;59.70;29.88;;;8.60;99.90;;;7.42;100.00;102325.88;4951310;28;20027;-73
2022/03/15 06:17:56;;;;;;;59.75;30.40;;;8.60;99.90;;;7.43;100.00;102326.75;4951594;28;20037;-73
2022/03/15 06:20:25;;;;;;;60.97;29.25;;;8.60;99.90;;;7.45;100.00;102327.59;4941185;28;20029;-73
2022/03/15 06:22:51;;;;;;;66.70;31.40;;;8.60;99.90;;;7.46;100.00;102326.72;4942420;28;20492;-73
2022/03/15 06:25:17;;;;;;;63.42;29.63;;;8.60;99.90;;;7.47;100.00;102325.84;4951259;28;20038;-73
2022/03/15 06:27:44;;;;;;;66.53;30.40;;;8.60;99.90;;;7.46;100.00;102324.97;4950083;28;20511;-72
2022/03/15 06:30:12;;;;;;;58.95;29.98;;;8.60;99.90;;;7.48;100.00;102320.59;4933857;28;20408;-73
2022/03/15 06:32:39;;;;;;;59.78;28.92;;;8.60;99.90;;;7.49;100.00;102324.94;4950868;28;20030;-73
2022/03/15 06:35:07;;;;;;;56.17;27.70;;;8.70;99.90;;;7.50;100.00;102321.44;4951944;28;20031;-73
2022/03/15 06:37:39;;;;;;;51.70;26.25;;;8.70;99.90;;;7.52;100.00;102321.44;4926692;28;20036;-72
2022/03/15 06:40:09;;;;;;;54.78;26.80;;;8.70;99.90;;;7.55;100.00;102324.03;4950252;28;20043;-73
2022/03/15 06:42:38;;;;;;;46.40;25.33;;;8.70;99.90;;;7.57;100.00;102324.88;4948970;28;20051;-73
2022/03/15 06:45:06;;;;;;;48.60;24.92;;;8.70;99.90;;;7.57;100.00;102323.13;4948544;28;20042;-73
2022/03/15 06:47:34;;;;;;;43.85;23.48;;;8.70;99.90;;;7.57;100.00;102332.75;4967643;28;20038;-72
2022/03/15 06:50:04;;;;;;;44.53;22.92;;;8.70;99.90;;;7.57;100.00;102327.50;4950622;28;20042;-72
2022/03/15 06:52:30;;;;;;;46.97;21.65;;;8.60;99.90;;;7.58;99.94;102332.75;4946993;28;20030;-73
2022/03/15 06:54:56;;;;;;;39.75;19.33;;;8.70;99.90;;;7.59;99.99;102336.22;4948981;28;20022;-73
2022/03/15 06:57:22;;;;;;;39.05;20.10;;;8.80;99.90;;;7.57;100.00;102338.00;4949832;28;20023;-73
2022/03/15 06:59:48;;;;;;;39.80;19.60;;;8.80;99.90;;;7.58;100.00;102343.22;4952013;28;20027;-73
2022/03/15 07:02:14;;;;;;;43.72;20.05;;;8.80;99.90;;;7.58;100.00;102342.34;4948392;28;20114;-74
2022/03/15 07:04:41;;;;;;;43.33;19.38;;;8.80;99.90;;;7.58;99.69;102340.59;4952401;28;20031;-73
2022/03/15 07:07:08;;;;;;;38.80;18.60;;;8.80;99.90;;;7.62;99.88;102338.81;4948974;28;20495;-73
2022/03/15 07:09:34;;;;;;;44.78;18.35;;;8.80;99.90;;;7.67;99.43;102328.31;4932257;28;20023;-73
2022/03/15 07:12:01;;;;;;;42.20;19.33;;;8.80;99.90;;;7.73;99.02;102333.47;4950284;28;20114;-73
2022/03/15 07:14:27;;;;;;;43.00;19.25;;;8.90;99.90;;;7.77;99.11;102338.66;4948912;28;20031;-73
2022/03/15 07:16:53;;;;;;;39.33;18.83;;;8.90;99.90;;;7.80;98.94;102341.28;4948807;28;20041;-72
2022/03/15 07:19:19;;;;;;;42.33;18.23;;;8.90;99.90;;;7.81;99.65;102350.00;4933463;28;20027;-72
2022/03/15 07:21:45;;;;;;;43.28;19.67;;;8.90;99.90;;;7.78;99.08;102337.81;4948042;28;20428;-73
2022/03/15 07:24:11;;;;;;;42.47;19.95;;;8.90;99.90;;;7.84;98.73;102339.50;4948116;28;20031;-73
2022/03/15 07:26:37;;;;;;;42.75;19.45;;;9.00;99.90;;;7.90;99.15;102334.19;4951232;28;20093;-73
2022/03/15 07:29:03;;;;;;;48.78;19.15;;;9.00;99.90;;;7.94;98.75;102330.66;4949483;28;20054;-73
2022/03/15 07:31:29;;;;;;;43.03;19.30;;;9.10;99.90;;;8.07;97.93;102338.41;4948620;28;20058;-73
2022/03/15 07:33:55;;;;;;;45.38;18.13;;;9.20;99.90;;;8.17;97.79;102340.06;4949020;28;20046;-73
2022/03/15 07:36:22;;;;;;;42.22;17.90;;;9.20;99.90;;;8.21;97.24;102333.88;4949233;28;20524;-73
2022/03/15 07:38:49;;;;;;;42.50;17.20;;;9.30;99.90;;;8.25;96.42;102338.22;4964173;28;20035;-73
2022/03/15 07:41:16;;;;;;;40.03;16.98;;;9.30;99.90;;;8.33;96.15;102336.34;4941154;28;20408;-73
2022/03/15 07:43:44;;;;;;;47.90;17.85;;;9.40;99.90;;;8.36;95.58;102331.09;4949011;28;20038;-73
2022/03/15 07:46:10;;;;;;;39.45;16.90;;;9.50;99.90;;;8.46;95.49;102331.84;4947169;28;20035;-72
2022/03/15 07:48:36;;;;;;;44.53;18.05;;;9.50;99.90;;;8.54;94.98;102339.66;4950325;28;20047;-73
2022/03/15 07:51:02;;;;;;;46.20;17.23;;;9.50;99.90;;;8.59;94.51;102333.44;4952740;28;20535;-73
2022/03/15 07:53:28;;;;;;;38.92;17.92;;;9.60;99.90;;;8.67;94.33;102343.00;4950454;28;20031;-73
2022/03/15 07:55:54;;;;;;;43.80;18.02;;;9.70;99.90;;;8.75;93.58;102339.38;4956122;28;20027;-73
2022/03/15 07:58:20;;;;;;;43.38;17.13;;;9.80;99.90;;;8.83;93.45;102345.41;4950375;28;20039;-72
2022/03/15 08:00:47;;;;;;;39.20;17.30;;;9.80;99.90;;;8.88;92.48;102347.09;4953958;28;20106;-74
2022/03/15 08:03:13;;;;;;;33.53;17.75;;;9.90;99.90;;;8.99;91.92;102353.06;4954959;28;21437;-73
2022/03/15 08:05:39;;;;;;;40.28;17.33;;;10.00;99.90;;;9.11;91.66;102354.66;4945718;28;20041;-73
2022/03/15 08:08:07;;;;;;;45.58;17.48;;;10.10;99.90;;;9.18;91.56;102358.94;4949742;28;20042;-74
2022/03/15 08:10:33;;;;;;;41.42;18.27;;;10.20;99.90;;;9.31;91.21;102359.59;4971945;28;20030;-73
2022/03/15 08:12:59;;;;;;;38.83;18.20;;;10.30;99.90;;;9.41;90.21;102350.69;4950192;28;20558;-73
2022/03/15 08:15:25;;;;;;;37.58;17.20;;;10.40;99.90;;;9.44;89.78;102355.91;4951196;28;20037;-73
2022/03/15 08:17:51;;;;;;;33.08;17.13;;;10.50;99.90;;;9.41;89.06;102358.56;4953711;28;20395;-73
2022/03/15 08:20:20;;;;;;;33.08;16.98;;;10.40;99.90;;;9.35;88.72;102364.81;4951208;28;20039;-73
2022/03/15 08:22:47;;;;;;;41.67;17.70;;;10.40;99.90;;;9.30;88.84;102365.75;4951314;28;20030;-73
2022/03/15 08:25:13;;;;;;;39.95;17.33;;;10.40;99.90;;;9.29;89.05;102364.00;4955743;28;20045;-73
2022/03/15 08:27:39;;;;;;;36.42;16.98;;;10.40;99.90;;;9.35;88.89;102371.81;4952488;28;20062;-73
2022/03/15 08:30:07;;;;;;;35.05;16.75;;;10.40;99.90;;;9.33;88.74;102365.69;4934889;28;20467;-73
2022/03/15 08:32:34;;;;;;;36.50;16.80;;;10.40;99.90;;;9.33;88.30;102363.06;4960489;28;20030;-73
2022/03/15 08:35:00;;;;;;;29.00;15.05;;;10.40;99.90;;;9.28;87.98;102363.16;4951958;28;20034;-73
2022/03/15 08:37:26;;;;;;;33.83;15.35;;;10.40;99.90;;;9.14;87.67;102358.09;4953266;28;20483;-73
2022/03/15 08:39:52;;;;;;;28.42;15.15;;;10.30;99.90;;;9.14;87.62;102363.38;4952361;28;20406;-73
2022/03/15 08:42:18;;;;;;;36.53;16.58;;;10.30;99.90;;;9.21;87.46;102359.75;4951276;28;20038;-73
2022/03/15 08:44:44;;;;;;;45.95;17.02;;;10.30;99.90;;;9.32;87.49;102356.09;4953851;28;20130;-73
2022/03/15 08:47:10;;;;;;;33.55;16.75;;;10.40;99.90;;;9.40;87.26;102354.22;4952336;28;20023;-72
2022/03/15 08:49:37;;;;;;;33.17;15.85;;;10.50;99.90;;;9.54;86.43;102349.59;4951472;28;20074;-73
2022/03/15 08:52:07;;;;;;;33.60;15.77;;;10.50;99.90;;;9.63;86.01;102349.47;4967861;28;20566;-73
2022/03/15 08:54:36;;;;;;;28.77;14.00;;;10.70;99.90;;;9.77;85.85;102356.25;4951773;28;20435;-72
2022/03/15 08:57:02;;;;;;;24.20;13.88;;;10.70;99.90;;;9.89;85.02;102361.28;4951942;28;20046;-72
2022/03/15 08:59:28;;;;;;;29.95;12.93;;;10.80;99.90;;;9.99;84.40;102362.84;4928348;28;20066;-73
2022/03/15 09:01:54;;;;;;;25.27;13.02;;;10.90;99.90;;;9.98;83.69;102374.28;4952535;28;20026;-73
2022/03/15 09:04:20;;;;;;;27.67;12.15;;;11.00;99.90;;;9.95;83.46;102374.31;4948229;28;20051;-75
2022/03/15 09:06:47;;;;;;;21.10;11.65;;;10.90;99.90;;;9.81;83.03;102378.97;4947364;28;20070;-73
2022/03/15 09:09:18;;;;;;;19.80;11.23;;;10.90;99.90;;;9.78;82.94;102377.28;4955319;28;20046;-73
2022/03/15 09:11:46;;;;;;;19.05;10.63;;;10.80;99.90;;;9.74;83.55;102379.94;4963429;28;20175;-73
2022/03/15 09:14:14;;;;;;;23.42;12.48;;;10.80;99.90;;;9.77;83.71;102379.91;4949900;28;20046;-73
2022/03/15 09:16:40;;;;;;;33.15;13.63;;;10.80;99.90;;;9.58;83.65;102380.22;4948652;28;20035;-73
2022/03/15 09:19:09;;;;;;;29.45;13.25;;;10.70;99.90;;;9.54;83.28;102385.53;4936347;28;20035;-72
2022/03/15 09:21:36;;;;;;;28.67;13.52;;;10.60;99.90;;;9.39;83.59;102389.28;4952363;28;20039;-74
2022/03/15 09:24:02;;;;;;;34.80;13.95;;;10.50;99.90;;;9.15;83.79;102378.22;4949785;28;20043;-73
2022/03/15 09:26:28;;;;;;;28.13;13.35;;;10.40;99.90;;;9.10;84.53;102393.19;4942615;28;20078;-73
2022/03/15 09:28:55;;;;;;;27.02;13.63;;;10.30;99.90;;;9.10;84.33;102387.09;4952387;28;20039;-73
2022/03/15 09:31:22;;;;;;;28.05;12.95;;;10.30;99.90;;;9.04;84.87;102394.16;4950071;28;20030;-73
2022/03/15 09:33:48;;;;;;;27.75;12.32;;;10.20;99.90;;;9.07;84.72;102384.47;4952638;28;20034;-73
2022/03/15 09:36:16;;;;;;;29.30;12.40;;;10.20;99.90;;;9.17;84.69;102388.72;4934203;28;20130;-73
2022/03/15 09:38:44;;;;;;;37.83;14.55;;;10.30;99.90;;;9.27;84.33;102384.22;4948213;28;20023;-74
2022/03/15 09:41:14;;;;;;;30.00;13.40;;;10.30;99.90;;;9.36;83.99;102382.31;4943589;28;20027;-73
2022/03/15 09:43:45;;;;;;;34.72;14.70;;;10.40;99.90;;;9.43;83.49;102386.56;4950587;28;20027;-73
2022/03/15 09:46:13;;;;;;;38.28;16.38;;;10.40;99.90;;;9.45;83.64;102390.03;4950423;28;20582;-72
2022/03/15 09:48:41;;;;;;;38.17;16.58;;;10.50;99.90;;;9.48;84.16;102383.91;4950178;28;20137;-73
2022/03/15 09:51:14;;;;;;;35.80;15.93;;;10.50;99.90;;;9.47;83.30;102384.78;4934723;28;20407;-73
2022/03/15 09:53:42;;;;;;;39.33;16.38;;;10.50;99.90;;;9.52;83.56;102390.81;4947833;28;20038;-73
2022/03/15 09:56:09;;;;;;;38.22;16.10;;;10.50;99.90;;;9.53;83.52;102379.44;4951826;28;23276;-73
2022/03/15 09:58:35;;;;;;;32.63;16.38;;;10.60;99.90;;;9.51;83.19;102388.25;4933725;28;20136;-73
2022/03/15 10:01:01;;;;;;;37.90;16.42;;;10.60;99.90;;;9.43;83.24;102397.09;4949986;28;20427;-73
2022/03/15 10:03:27;;;;;;;34.60;16.75;;;10.50;99.90;;;9.34;82.65;102396.38;4949938;28;20035;-73
2022/03/15 10:05:54;;;;;;;39.15;17.65;;;10.50;99.90;;;9.21;83.21;102391.28;4951868;28;20145;-74
2022/03/15 10:08:20;;;;;;;35.67;17.88;;;10.40;99.90;;;9.26;83.29;102387.72;4952447;28;20050;-73